Latest Weather Observations for Pallamana

IDS60901

Issued at 6:31 pm CDT Tuesday 10 December 2019 (issued every 10 minutes, with the page automatically refreshed every 10 minutes)

About weather observations | Map of Adelaide area stations | Latest observations for Adelaide area | Other Formats
Station Details ID: 024584 Name: PALLAMANA AERODROME Lat: -35.06 Lon: 139.23 Height: 45.0 m
Data from the previous 72 hours. | See also: Recent months at Pallamana
Date/Time
CDT
Temp
°C
App
Temp
°C
Dew
Point
°C
Rel
Hum
%
Delta-T
°C
Wind Press
QNH
hPa
Press
MSL
hPa
Rain since
9am
mm
Dir  Spd
km/h
Gust
km/h
Spd
kts
Gust
kts
10/06:30pm 18.2 12.2 8.5 53 5.0 SSW 30 39 16 21 1019.6 1019.5 0.0
10/06:00pm 18.6 11.9 8.1 50 5.4 SSW 33 46 18 25 1019.4 1019.3 0.0
10/05:30pm 19.5 12.6 7.3 45 6.2 SSW 33 44 18 24 1019.4 1019.3 0.0
10/05:00pm 20.0 13.2 7.0 43 6.6 SSW 32 43 17 23 1019.5 1019.4 0.0
10/04:30pm 20.3 13.3 6.9 41 6.8 SSW 33 43 18 23 1019.7 1019.6 0.0
10/04:00pm 20.3 13.9 7.1 42 6.7 SSW 30 43 16 23 1019.7 1019.6 0.0
10/03:30pm 20.3 13.9 7.1 42 6.7 S 30 41 16 22 1019.9 1019.8 0.0
10/03:00pm 21.1 14.9 7.8 42 6.9 S 30 39 16 21 1019.9 1019.8 0.0
10/02:30pm 20.6 14.9 8.3 45 6.4 S 28 39 15 21 1020.1 1020.0 0.0
10/02:00pm 22.3 16.9 8.0 40 7.5 SSW 26 33 14 18 1020.1 1020.0 0.0
10/01:30pm 20.1 14.8 8.4 47 6.1 S 26 37 14 20 1020.4 1020.3 0.0
10/01:00pm 20.7 15.3 8.2 44 6.5 S 26 37 14 20 1020.7 1020.6 0.0
10/12:30pm 19.6 14.2 9.4 51 5.4 S 28 41 15 22 1020.9 1020.8 0.0
10/12:00pm 19.7 14.3 9.5 51 5.4 S 28 41 15 22 1021.1 1021.0 0.0
10/11:30am 19.2 14.7 10.2 56 4.8 S 24 35 13 19 1021.3 1021.2 0.0
10/11:00am 18.2 13.8 10.5 60 4.1 SSE 24 30 13 16 1021.3 1021.2 0.0
10/10:30am 17.5 13.9 11.8 69 3.1 SSW 22 30 12 16 1021.4 1021.3 0.0
10/10:26am 17.9 14.1 11.3 65 3.6 SSW 22 30 12 16 1021.3 1021.2 0.0
10/10:20am 18.0 14.1 12.2 69 3.2 S 24 32 13 17 1021.3 1021.2 0.0
10/10:05am 16.1 12.8 14.0 87 1.2 SSW 24 33 13 18 1021.5 1021.4 0.0
10/10:01am 15.9 12.3 13.0 83 1.6 SSW 24 33 13 18 1021.4 1021.3 0.0
10/10:00am 16.1 12.8 12.7 80 1.9 SSW 22 33 12 18 1021.3 1021.2 0.0
10/09:44am 15.7 12.5 13.2 85 1.4 SSW 22 30 12 16 1021.5 1021.4 0.0
10/09:30am 16.7 14.4 12.9 78 2.1 S 17 24 9 13 1021.3 1021.2 0.0
10/09:28am 16.2 13.8 12.8 80 1.9 S 17 24 9 13 1021.3 1021.2 0.0
10/09:07am 15.3 12.4 12.9 85 1.3 SSE 20 28 11 15 1021.3 1021.2 0.0
10/09:00am 15.9 13.0 12.2 78 2.0 S 19 24 10 13 1021.3 1021.2 0.0
10/08:54am 15.9 12.7 11.8 76 2.2 S 20 26 11 14 1021.2 1021.1 0.0
10/08:30am 15.5 12.1 11.2 75 2.3 SSW 20 28 11 15 1021.1 1021.0 0.0
10/08:00am 15.3 11.7 11.8 79 1.9 SSW 22 30 12 16 1021.1 1021.0 0.0
10/07:30am 15.0 11.4 10.6 75 2.3 SSW 20 28 11 15 1021.0 1020.9 0.0
10/07:00am 14.4 11.7 11.8 84 1.4 SSW 17 22 9 12 1020.8 1020.7 0.0
10/06:30am 13.9 10.9 12.0 88 1.0 SW 19 24 10 13 1020.7 1020.6 0.0
10/06:00am 14.3 11.4 11.1 81 1.7 SSW 17 22 9 12 1020.3 1020.2 0.0
10/05:30am 14.1 11.0 11.5 84 1.4 SSW 19 26 10 14 1020.1 1020.0 0.0
10/05:00am 14.4 11.2 11.2 81 1.7 SSW 19 22 10 12 1019.9 1019.8 0.0
10/04:30am 14.3 10.5 11.3 82 1.6 SW 22 30 12 16 1019.7 1019.6 0.0
10/04:00am 14.3 11.6 11.7 84 1.4 SW 17 24 9 13 1019.5 1019.4 0.0
10/03:30am 14.0 10.9 12.3 89 0.9 SW 20 24 11 13 1019.4 1019.3 0.0
10/03:27am 14.0 10.9 12.3 89 0.9 SW 20 24 11 13 1019.3 1019.2 0.0
10/03:00am 13.8 10.8 12.7 93 0.6 SSW 20 28 11 15 1019.5 1019.4 0.0
10/02:42am 13.8 10.1 12.7 93 0.6 SW 24 30 13 16 1019.5 1019.4 0.0
10/02:39am 13.9 10.2 12.8 93 0.6 SW 24 30 13 16 1019.5 1019.4 0.0
10/02:30am 14.2 11.4 13.1 93 0.6 SSW 20 26 11 14 1019.5 1019.4 0.0
10/02:00am 14.5 11.2 12.9 90 0.9 SW 22 30 12 16 1019.8 1019.7 0.0
10/01:58am 14.6 11.3 12.8 89 1.0 SW 22 30 12 16 1019.8 1019.7 0.0
10/01:30am 15.4 11.8 11.9 79 1.9 SSW 22 33 12 18 1019.6 1019.5 0.0
10/01:00am 15.4 11.5 12.1 81 1.8 SSW 24 32 13 17 1019.5 1019.4 0.0
10/12:30am 15.6 12.5 12.3 81 1.8 SW 20 28 11 15 1019.8 1019.7 0.0
10/12:00am 15.7 12.3 12.6 82 1.7 SSW 22 26 12 14 1019.9 1019.8 0.0
 
Date/Time
CDT
Temp
°C
App
Temp
°C
Dew
Point
°C
Rel
Hum
%
Delta-T
°C
Wind Press
QNH
hPa
Press
MSL
hPa
Rain since
9am
mm
Dir  Spd
km/h
Gust
km/h
Spd
kts
Gust
kts
09/11:30pm 15.7 12.7 12.6 82 1.7 SSW 20 28 11 15 1019.9 1019.8 0.0
09/11:13pm 15.9 12.5 12.6 81 1.8 SSW 22 28 12 15 1019.8 1019.7 0.0
09/11:00pm 16.2 12.8 12.4 78 2.1 SW 22 30 12 16 1019.8 1019.7 0.0
09/10:30pm 16.3 13.3 12.5 78 2.1 SW 20 28 11 15 1019.4 1019.3 0.0
09/10:01pm 16.6 13.7 12.8 78 2.1 SW 20 26 11 14 1019.1 1019.0 0.0
09/10:00pm 16.6 13.7 12.8 78 2.1 SW 20 26 11 14 1019.2 1019.1 0.0
09/09:30pm 16.6 13.0 13.0 79 2.0 SW 24 30 13 16 1018.6 1018.4 0.0
09/09:00pm 16.7 14.4 13.1 79 2.0 SW 17 24 9 13 1018.4 1018.2 0.0
09/08:31pm 16.8 13.9 13.0 78 2.1 SSW 20 30 11 16 1018.0 1017.8 0.0
09/08:30pm 16.8 14.1 13.0 78 2.1 SSW 19 30 10 16 1018.0 1017.8 0.0
09/08:00pm 17.1 14.4 12.8 76 2.4 S 19 26 10 14 1018.1 1017.9 0.0
09/07:30pm 17.8 13.3 12.6 71 2.9 SSW 28 39 15 21 1018.6 1018.4 0.0
09/07:00pm 18.5 15.5 12.6 68 3.3 S 20 28 11 15 1017.3 1017.1 0.0
09/06:30pm 19.1 15.2 12.1 64 3.9 S 24 33 13 18 1016.7 1016.5 0.0
09/06:00pm 19.9 14.3 12.0 60 4.4 SSW 33 41 18 22 1017.5 1017.3 0.0
09/05:30pm 20.9 15.3 12.0 56 5.0 SSW 33 43 18 23 1017.3 1017.1 0.0
09/05:00pm 21.9 15.5 12.1 53 5.5 SSW 37 48 20 26 1017.3 1017.1 0.0
09/04:30pm 22.9 17.0 12.3 51 6.0 SSW 35 48 19 26 1017.0 1016.8 0.0
09/04:00pm 22.9 17.2 13.0 53 5.7 SSW 35 46 19 25 1016.9 1016.7 0.0
09/03:30pm 23.0 17.1 13.5 55 5.5 SSW 37 48 20 26 1016.5 1016.3 0.0
09/03:00pm 23.2 17.6 13.4 54 5.7 SSW 35 46 19 25 1016.1 1015.9 0.0
09/02:30pm 24.0 18.6 13.8 53 6.0 SSW 35 44 19 24 1016.1 1015.9 0.0
09/02:00pm 24.2 19.3 13.8 52 6.1 S 32 41 17 22 1015.7 1015.5 0.0
09/01:30pm 26.8 22.6 13.4 43 7.9 S 28 39 15 21 1015.7 1015.5 0.0
09/01:00pm 28.3 24.4 13.3 39 8.9 SSW 26 35 14 19 1015.6 1015.4 0.0
09/12:30pm 27.1 22.7 12.9 41 8.3 S 28 35 15 19 1015.3 1015.1 0.0
09/12:00pm 28.8 24.5 12.2 35 9.7 S 26 33 14 18 1015.1 1014.9 0.0
09/11:30am 28.8 24.5 10.7 32 10.3 SSW 24 32 13 17 1014.9 1014.7 0.0
09/11:00am 28.6 24.8 11.1 33 10.0 SW 22 32 12 17 1015.1 1014.9 0.0
09/10:30am 27.0 23.5 10.9 36 9.1 SSW 20 28 11 15 1015.2 1015.0 0.0
09/10:00am 25.0 21.1 10.7 40 8.0 SW 22 30 12 16 1015.1 1014.9 0.0
09/09:30am 23.2 19.8 11.2 46 6.7 SSW 20 28 11 15 1014.7 1014.5 0.0
09/09:00am 22.8 18.3 10.2 44 6.9 SW 24 32 13 17 1014.8 1014.6 0.0
09/08:30am 23.0 19.3 10.0 43 7.1 SW 20 28 11 15 1014.1 1013.9 0.0
09/08:00am 22.3 19.6 10.5 47 6.5 SW 15 24 8 13 1013.7 1013.5 0.0
09/07:30am 21.8 20.0 10.9 50 6.0 SSW 11 15 6 8 1012.9 1012.7 0.0
09/07:00am 21.6 18.7 11.1 51 5.8 SSW 17 24 9 13 1012.6 1012.4 0.0
09/06:30am 21.4 16.8 11.1 52 5.7 SW 26 32 14 17 1012.1 1011.9 0.0
09/06:00am 22.4 16.3 4.6 31 8.8 SSW 26 35 14 19 1011.6 1011.4 0.0
09/05:30am 22.9 17.3 -6.0 14 11.7 N 15 20 8 11 1009.9 1009.8 0.0
09/05:00am 23.1 17.5 -6.0 14 11.8 NNW 15 17 8 9 1009.3 1009.2 0.0
09/04:30am 23.0 18.0 -4.7 15 11.5 N 13 19 7 10 1009.3 1009.2 0.0
09/04:00am 23.4 18.3 -5.1 14 11.8 N 13 15 7 8 1009.3 1009.2 0.0
09/03:30am 25.9 19.1 -5.0 12 13.1 N 22 26 12 14 1009.5 1009.4 0.0
09/03:00am 25.3 18.9 -4.6 13 12.7 N 20 24 11 13 1009.7 1009.6 0.0
09/02:48am 26.4 19.7 -4.6 12 13.3 N 22 28 12 15 1009.8 1009.7 0.0
09/02:30am 21.2 15.9 -3.9 18 10.4 N 15 19 8 10 1010.1 1010.0 0.0
09/02:00am 21.9 17.0 -3.6 18 10.7 NNE 13 15 7 8 1010.1 1010.0 0.0
09/01:30am 25.0 18.9 -3.9 14 12.4 N 19 20 10 11 1010.4 1010.3 0.0
09/01:00am 22.4 16.7 -3.8 17 11.0 N 17 20 9 11 1010.5 1010.4 0.0
09/12:30am 24.9 18.9 -3.2 15 12.2 NNW 19 20 10 11 1010.6 1010.5 0.0
09/12:00am 24.7 18.7 -2.7 16 12.0 NNW 19 20 10 11 1010.8 1010.7 0.0
 
Date/Time
CDT
Temp
°C
App
Temp
°C
Dew
Point
°C
Rel
Hum
%
Delta-T
°C
Wind Press
QNH
hPa
Press
MSL
hPa
Rain since
9am
mm
Dir  Spd
km/h
Gust
km/h
Spd
kts
Gust
kts
08/11:30pm 25.7 20.1 -2.5 15 12.5 N 17 20 9 11 1010.9 1010.8 0.0
08/11:00pm 27.5 22.2 -3.6 13 13.7 N 15 20 8 11 1010.9 1010.8 0.0
08/10:30pm 30.3 24.1 -4.8 10 15.5 NE 19 24 10 13 1011.0 1010.9 0.0
08/10:00pm 26.8 22.1 -1.6 15 12.9 N 13 15 7 8 1010.8 1010.7 0.0
08/09:30pm 29.0 23.2 -4.4 11 14.7 ENE 17 19 9 10 1010.8 1010.7 0.0
08/09:00pm 30.9 26.8 -3.4 10 15.6 E 9 15 5 8 1010.9 1010.8 0.0
08/08:30pm 34.3 30.1 -3.5 9 17.6 ENE 9 13 5 7 1011.0 1010.9 0.0
08/08:00pm 34.4 30.7 -2.6 9 17.5 WSW 7 13 4 7 1010.9 1010.8 0.0
08/07:30pm 37.0 31.6 -4.6 7 19.4 NW 15 20 8 11 1010.6 1010.5 0.0
08/07:00pm 37.6 31.8 -4.2 7 19.7 NE 17 22 9 12 1010.2 1010.1 0.0
08/06:30pm 37.7 32.2 -2.1 8 19.4 NNE 17 28 9 15 1010.3 1010.2 0.0
08/06:00pm 38.5 32.2 -1.1 8 19.7 NE 22 30 12 16 1010.0 1009.9 0.0
08/05:30pm 38.4 31.1 -6.2 6 20.5 NE 24 32 13 17 1009.8 1009.7 0.0
08/05:00pm 37.8 31.1 -4.0 7 19.8 NE 22 32 12 17 1010.1 1010.0 0.0
08/04:30pm 37.7 30.9 -2.1 8 19.4 NE 24 32 13 17 1010.5 1010.4 0.0
08/04:00pm 38.4 31.4 -3.1 7 20.0 NE 24 39 13 21 1010.8 1010.7 0.0
08/03:30pm 37.7 30.9 -5.1 6 19.9 NNE 22 37 12 20 1011.3 1011.1 0.0
08/03:00pm 37.8 31.5 -1.3 8 19.3 NNE 22 32 12 17 1011.7 1011.5 0.0
08/02:30pm 36.1 29.7 -2.0 9 18.4 NNE 22 33 12 18 1012.1 1011.9 0.0
08/02:00pm 36.0 29.8 -3.5 8 18.6 NE 20 30 11 16 1012.5 1012.3 0.0
08/01:30pm 35.4 28.8 -0.2 10 17.6 NNE 24 39 13 21 1012.8 1012.6 0.0
08/01:00pm 34.6 26.3 -0.1 11 17.1 NNE 33 48 18 26 1012.9 1012.7 0.0
08/12:30pm 33.5 25.7 -0.9 11 16.6 NNE 30 43 16 23 1013.1 1012.9 0.0
08/12:00pm 32.5 23.8 -0.8 12 16.0 NNE 35 52 19 28 1013.4 1013.2 0.0
08/11:30am 31.7 23.0 -0.7 12 15.5 NNE 35 46 19 25 1013.8 1013.6 0.0
08/11:00am 29.8 22.1 -0.3 14 14.3 NNE 30 43 16 23 1014.3 1014.1 0.0
08/10:30am 26.4 19.8 2.3 21 11.7 NNE 26 33 14 18 1014.7 1014.5 0.0
08/10:00am 24.9 19.4 3.9 25 10.4 NNE 22 28 12 15 1015.1 1014.9 0.0
08/09:30am 22.7 18.2 6.2 34 8.4 NNE 19 26 10 14 1015.4 1015.2 0.0
08/09:00am 21.6 16.4 5.3 34 8.1 NNE 22 28 12 15 1015.6 1015.4 0.0
08/08:30am 20.1 14.7 6.3 40 6.9 NNE 24 30 13 16 1015.6 1015.4 0.0
08/08:00am 18.6 13.6 6.6 45 6.0 N 22 30 12 16 1015.7 1015.5 0.0
08/07:30am 15.8 12.4 7.6 58 4.1 N 15 19 8 10 1015.5 1015.3 0.0
08/07:00am 11.6 9.6 7.2 74 2.1 NNW 7 9 4 5 1015.7 1015.5 0.0
08/06:30am 7.8 5.6 5.3 84 1.1 NNW 6 7 3 4 1015.8 1015.6 0.0
08/06:00am 8.2 5.4 5.3 82 1.3 NNW 9 9 5 5 1015.8 1015.6 0.0
08/05:30am 8.2 7.1 5.3 82 1.3 CALM 0 0 0 0 1015.9 1015.7 0.0
08/05:00am 7.5 6.3 4.8 83 1.2 CALM 0 0 0 0 1015.8 1015.6 0.0
08/04:30am 7.8 6.7 5.1 83 1.2 CALM 0 0 0 0 1016.0 1015.8 0.0
08/04:00am 8.8 7.9 6.2 84 1.2 CALM 0 0 0 0 1015.9 1015.7 0.0
08/03:30am 8.9 7.0 6.5 85 1.1 W 6 7 3 4 1015.7 1015.5 0.0
08/03:00am 8.9 7.3 6.5 85 1.1 W 4 7 2 4 1015.9 1015.7 0.0
08/02:30am 9.3 8.5 6.7 84 1.2 CALM 0 0 0 0 1016.2 1016.0 0.0
08/02:00am 9.9 8.9 7.4 84 1.2 W 2 6 1 3 1016.3 1016.1 0.0
08/01:30am 10.8 9.8 7.5 80 1.6 W 2 7 1 4 1016.7 1016.5 0.0
08/01:00am 12.7 10.7 8.7 76 2.0 W 9 13 5 7 1016.8 1016.6 0.0
08/12:30am 13.3 10.3 9.4 77 2.0 W 15 19 8 10 1016.9 1016.7 0.0
08/12:00am 13.3 10.8 9.8 79 1.8 W 13 17 7 9 1017.4 1017.2 0.0
 
Date/Time
CDT
Temp
°C
App
Temp
°C
Dew
Point
°C
Rel
Hum
%
Delta-T
°C
Wind Press
QNH
hPa
Press
MSL
hPa
Rain since
9am
mm
Dir  Spd
km/h
Gust
km/h
Spd
kts
Gust
kts
07/11:30pm 13.2 10.8 9.9 80 1.7 W 13 17 7 9 1017.5 1017.3 0.0
07/11:00pm 13.5 10.8 10.2 80 1.7 WSW 15 17 8 9 1017.8 1017.6 0.0
07/10:30pm 13.9 10.9 10.5 80 1.8 WSW 17 19 9 10 1018.1 1017.9 0.0
07/10:00pm 14.2 11.5 10.2 77 2.1 WSW 15 19 8 10 1018.2 1018.0 0.0
07/09:30pm 15.0 11.9 10.4 74 2.4 SW 17 20 9 11 1018.2 1018.0 0.0
07/09:00pm 15.7 12.1 10.4 71 2.8 SSW 20 22 11 12 1018.2 1018.0 0.0
07/08:30pm 16.7 13.7 10.5 67 3.3 SSW 17 24 9 13 1017.9 1017.7 0.0
07/08:00pm 18.0 14.4 10.5 61 4.0 SSW 20 30 11 16 1017.5 1017.3 0.0
07/07:30pm 19.7 15.3 10.4 55 5.0 SSW 24 32 13 17 1017.1 1016.9 0.0
07/07:00pm 21.1 17.0 10.2 49 5.9 S 22 30 12 16 1016.7 1016.5 0.0

Latest Capital City Observations: Canberra | Sydney | Melbourne | Brisbane | Adelaide | Perth | Hobart | Darwin

Other formats

Comma delimited format used in spreadsheet applications
http://www.bom.gov.au/fwo/IDS60901/IDS60901.95818.axf

JavaScript Object Notation format (JSON) in row-major order
http://www.bom.gov.au/fwo/IDS60901/IDS60901.95818.json

Data quality

Most of these data are generated automatically and are frequently updated. Quality checks on data are not normally performed. It is possible for incorrect values to appear. Refer to information at About Latest Weather Observations and please check the disclaimer before using these data.